createdAt,value
2023-02-17T00:03:49.143Z,7.8
2023-02-17T00:08:55.148Z,7.8
2023-02-17T00:14:01.177Z,7.8
2023-02-17T00:19:07.243Z,7.9
2023-02-17T00:24:13.364Z,7.9
2023-02-17T00:29:19.358Z,7.9
2023-02-17T00:34:25.408Z,7.9
2023-02-17T00:39:31.482Z,7.9
2023-02-17T00:44:37.536Z,7.9
2023-02-17T00:49:43.593Z,7.8
2023-02-17T00:54:49.670Z,7.8
2023-02-17T00:59:55.715Z,7.8
2023-02-17T01:05:01.787Z,7.8
2023-02-17T01:10:07.839Z,7.9
2023-02-17T01:15:15.759Z,7.9
2023-02-17T01:20:21.820Z,7.9
2023-02-17T01:25:27.889Z,7.9
2023-02-17T01:30:33.938Z,7.9
2023-02-17T01:35:39.979Z,7.9
2023-02-17T01:40:46.072Z,7.9
2023-02-17T01:45:52.111Z,7.8
2023-02-17T01:50:58.134Z,7.8
2023-02-17T01:56:04.532Z,7.8
2023-02-17T02:01:10.262Z,7.9
2023-02-17T02:06:16.324Z,7.9
2023-02-17T02:11:22.435Z,7.8
2023-02-17T02:16:28.440Z,7.8
2023-02-17T02:21:34.495Z,7.9
2023-02-17T02:26:40.549Z,7.9
2023-02-17T02:31:46.669Z,7.9
2023-02-17T02:36:52.676Z,7.9
2023-02-17T02:41:58.759Z,7.9
2023-02-17T02:47:04.778Z,7.9
2023-02-17T02:52:10.844Z,7.8
2023-02-17T02:57:16.929Z,7.8
2023-02-17T03:02:22.957Z,7.8
2023-02-17T03:07:29.013Z,7.8
2023-02-17T03:12:35.090Z,7.8
2023-02-17T03:17:41.106Z,7.8
2023-02-17T03:22:47.182Z,7.8
2023-02-17T03:27:53.258Z,7.9
2023-02-17T03:32:59.296Z,7.9
2023-02-17T03:38:05.357Z,7.8
2023-02-17T03:43:11.445Z,7.8
2023-02-17T03:48:17.513Z,7.8
2023-02-17T03:53:23.536Z,7.8
2023-02-17T03:58:29.596Z,7.8
2023-02-17T04:03:35.633Z,7.8
2023-02-17T04:08:41.696Z,7.8
2023-02-17T04:13:47.777Z,7.8
2023-02-17T04:18:53.828Z,7.8
2023-02-17T04:23:59.845Z,7.8
2023-02-17T04:29:05.938Z,7.9
2023-02-17T04:34:11.976Z,7.9
2023-02-17T04:39:18.043Z,7.8
2023-02-17T04:44:24.100Z,7.8
2023-02-17T04:49:30.161Z,7.8
2023-02-17T04:54:36.225Z,7.8
2023-02-17T04:59:42.289Z,7.8
2023-02-17T05:04:48.418Z,7.8
2023-02-17T05:09:54.368Z,7.8
2023-02-17T05:15:00.469Z,7.8
2023-02-17T05:20:06.494Z,7.9
2023-02-17T05:25:12.564Z,7.9
2023-02-17T05:30:18.694Z,8
2023-02-17T05:35:24.812Z,8
2023-02-17T05:40:30.756Z,8
2023-02-17T05:45:36.839Z,8
2023-02-17T05:50:42.860Z,8.1
2023-02-17T05:55:48.975Z,8.1
2023-02-17T06:00:54.991Z,8.2
2023-02-17T06:06:01.021Z,8.2
2023-02-17T06:11:07.072Z,8.2
2023-02-17T06:16:13.213Z,8.3
2023-02-17T06:21:19.192Z,8.3
2023-02-17T06:26:25.265Z,8.3
2023-02-17T06:31:31.443Z,8.3
2023-02-17T06:36:37.362Z,8.3
2023-02-17T06:41:43.414Z,8.4
2023-02-17T06:46:49.510Z,8.3
2023-02-17T06:51:55.545Z,8.3
2023-02-17T06:57:01.590Z,8.3
2023-02-17T07:02:07.751Z,8.3
2023-02-17T07:07:13.749Z,8.3
2023-02-17T07:12:19.750Z,8.4
2023-02-17T07:17:25.971Z,8.4
2023-02-17T07:22:31.874Z,8.4
2023-02-17T07:27:37.952Z,8.3
2023-02-17T07:32:44.016Z,8.3
2023-02-17T07:37:50.062Z,8.3
2023-02-17T07:42:56.102Z,8.3
2023-02-17T07:48:02.190Z,8.4
2023-02-17T07:53:08.222Z,8.3
2023-02-17T07:58:14.280Z,8.3
2023-02-17T08:03:20.350Z,8.3
2023-02-17T08:08:26.405Z,8.3
2023-02-17T08:13:32.450Z,8.3
2023-02-17T08:18:38.515Z,8.3
2023-02-17T08:23:45.466Z,8.3
2023-02-17T08:28:50.610Z,8.4
2023-02-17T08:33:56.693Z,8.4
2023-02-17T08:39:02.738Z,8.4
2023-02-17T08:44:08.803Z,8.4
2023-02-17T08:49:14.863Z,8.4
2023-02-17T08:54:20.887Z,8.4
2023-02-17T08:59:26.957Z,8.4
2023-02-17T09:04:33.176Z,8.4
2023-02-17T09:09:39.062Z,8.4
2023-02-17T09:14:45.155Z,8.4
2023-02-17T09:19:51.280Z,8.4
2023-02-17T09:24:57.250Z,8.4
2023-02-17T09:30:03.367Z,8.4
2023-02-17T09:35:09.437Z,8.4
2023-02-17T09:40:15.453Z,8.4
2023-02-17T09:45:21.572Z,8.4
2023-02-17T09:50:27.681Z,8.4
2023-02-17T09:55:33.658Z,8.4
2023-02-17T10:00:39.751Z,8.5
2023-02-17T10:05:45.754Z,8.5
2023-02-17T10:10:51.799Z,8.5
2023-02-17T10:15:57.846Z,8.6
2023-02-17T10:21:04.015Z,8.5
2023-02-17T10:26:10.386Z,8.6
2023-02-17T10:31:16.176Z,8.6
2023-02-17T10:36:22.079Z,8.6
2023-02-17T10:41:28.114Z,8.6
2023-02-17T10:46:34.247Z,8.6
2023-02-17T10:51:40.294Z,8.6
2023-02-17T10:56:46.280Z,8.6
2023-02-17T11:01:52.361Z,8.6
2023-02-17T11:06:58.436Z,8.6
2023-02-17T11:12:04.443Z,8.6
2023-02-17T11:17:10.504Z,8.6
2023-02-17T11:22:16.600Z,8.7
2023-02-17T11:27:22.633Z,8.7
2023-02-17T11:32:28.687Z,8.7
2023-02-17T11:37:34.786Z,8.6
2023-02-17T11:42:40.805Z,8.6
2023-02-17T11:47:46.876Z,8.6
2023-02-17T11:52:52.979Z,8.6
2023-02-17T11:57:59.003Z,8.6
2023-02-17T12:03:05.107Z,8.5
2023-02-17T12:08:11.119Z,8.6
2023-02-17T12:13:17.139Z,8.6
2023-02-17T12:18:23.201Z,8.6
2023-02-17T12:23:29.282Z,8.6
2023-02-17T12:28:35.315Z,8.6
2023-02-17T12:33:41.370Z,8.5
2023-02-17T12:38:47.454Z,8.5
2023-02-17T12:43:53.512Z,8.5
2023-02-17T12:48:59.529Z,8.6
2023-02-17T12:54:05.612Z,8.5
2023-02-17T12:59:11.675Z,8.5
2023-02-17T13:04:17.715Z,8.5
2023-02-17T13:09:23.810Z,8.5
2023-02-17T13:14:29.836Z,8.4
2023-02-17T13:19:37.774Z,8.5
2023-02-17T13:24:45.757Z,8.5
2023-02-17T13:29:53.657Z,8.5
2023-02-17T13:35:01.656Z,8.5
2023-02-17T13:40:09.612Z,8.5
2023-02-17T13:45:17.503Z,8.5
2023-02-17T13:50:25.450Z,8.5
2023-02-17T13:55:33.407Z,8.5
2023-02-17T14:00:39.444Z,8.5
2023-02-17T14:05:45.513Z,8.5
2023-02-17T14:10:51.570Z,8.4
2023-02-17T14:15:57.719Z,8.5
2023-02-17T14:21:03.897Z,8.5
2023-02-17T14:26:09.737Z,8.5
2023-02-17T14:31:15.907Z,8.5
2023-02-17T14:36:21.879Z,8.5
2023-02-17T14:41:27.892Z,8.5
2023-02-17T14:46:34.007Z,8.5
2023-02-17T14:51:39.999Z,8.4
2023-02-17T14:56:46.069Z,8.4
2023-02-17T15:01:52.321Z,8.5
2023-02-17T15:06:58.203Z,8.5
2023-02-17T15:12:04.252Z,8.5
2023-02-17T15:17:10.289Z,8.5
2023-02-17T15:22:16.364Z,8.5
2023-02-17T15:27:22.433Z,8.4
2023-02-17T15:32:28.445Z,8.4
2023-02-17T15:37:34.513Z,8.4
2023-02-17T15:42:40.589Z,8.5
2023-02-17T15:47:46.633Z,8.5
2023-02-17T15:52:52.674Z,8.5
2023-02-17T15:57:58.759Z,8.5
2023-02-17T16:03:04.840Z,8.5
2023-02-17T16:08:10.855Z,8.4
2023-02-17T16:13:16.918Z,8.4
2023-02-17T16:18:22.980Z,8.4
2023-02-17T16:23:29.017Z,8.4
2023-02-17T16:28:35.124Z,8.4
2023-02-17T16:33:41.140Z,8.4
2023-02-17T16:38:47.209Z,8.4
2023-02-17T16:43:53.305Z,8.4
2023-02-17T16:48:59.328Z,8.4
2023-02-17T16:54:05.381Z,8.4
2023-02-17T16:59:11.464Z,8.4
2023-02-17T17:04:17.510Z,8.4
2023-02-17T17:09:23.537Z,8.4
2023-02-17T17:14:29.632Z,8.4
2023-02-17T17:19:35.661Z,8.4
2023-02-17T17:24:41.711Z,8.4
2023-02-17T17:29:47.821Z,8.4
2023-02-17T17:34:53.833Z,8.4
2023-02-17T17:39:59.897Z,8.4
2023-02-17T17:45:05.965Z,8.4
2023-02-17T17:50:13.441Z,8.4
2023-02-17T17:55:18.087Z,8.4
2023-02-17T18:00:24.177Z,8.4
2023-02-17T18:05:32.060Z,8.4
2023-02-17T18:10:38.140Z,8.4
2023-02-17T18:15:44.227Z,8.4
2023-02-17T18:20:50.250Z,8.4
2023-02-17T18:25:56.306Z,8.4
2023-02-17T18:31:02.446Z,8.4
2023-02-17T18:36:08.785Z,8.4
2023-02-17T18:41:14.471Z,8.4
2023-02-17T18:46:20.598Z,8.4
2023-02-17T18:51:26.703Z,8.4
2023-02-17T18:56:32.633Z,8.4
2023-02-17T19:01:38.829Z,8.4
2023-02-17T19:06:44.768Z,8.4
2023-02-17T19:11:50.804Z,8.3
2023-02-17T19:16:56.868Z,8.3
2023-02-17T19:22:02.925Z,8.3
2023-02-17T19:27:08.970Z,8.3
2023-02-17T19:32:15.149Z,8.4
2023-02-17T19:37:21.112Z,8.4
2023-02-17T19:42:27.142Z,8.4
2023-02-17T19:47:33.240Z,8.4
2023-02-17T19:52:39.282Z,8.4
2023-02-17T20:02:53.409Z,8.3
2023-02-17T20:07:59.333Z,8.3
2023-02-17T20:13:05.393Z,8.3
2023-02-17T20:18:11.453Z,8.3
2023-02-17T20:23:17.487Z,8.3
2023-02-17T20:28:23.855Z,8.3
2023-02-17T20:33:29.625Z,8.4
2023-02-17T20:38:35.652Z,8.4
2023-02-17T20:43:41.714Z,8.4
2023-02-17T20:48:47.805Z,8.4
2023-02-17T20:53:53.886Z,8.4
2023-02-17T20:58:59.892Z,8.3
2023-02-17T21:04:05.997Z,8.3
2023-02-17T21:09:12.029Z,8.3
2023-02-17T21:14:18.073Z,8.3
2023-02-17T21:19:24.153Z,8.3
2023-02-17T21:24:30.178Z,8.3
2023-02-17T21:29:36.235Z,8.4
2023-02-17T21:34:42.321Z,8.3
2023-02-17T21:39:48.360Z,8.3
2023-02-17T21:44:54.462Z,8.3
2023-02-17T21:50:00.525Z,8.3
2023-02-17T21:55:06.548Z,8.3
2023-02-17T22:00:12.590Z,8.3
2023-02-17T22:05:18.675Z,8.3
2023-02-17T22:10:24.711Z,8.3
2023-02-17T22:15:30.766Z,8.3
2023-02-17T22:20:36.845Z,8.3
2023-02-17T22:25:42.906Z,8.3
2023-02-17T22:30:48.949Z,8.2
2023-02-17T22:35:55.043Z,8.2
2023-02-17T22:41:01.068Z,8.2
2023-02-17T22:46:07.550Z,8.3
2023-02-17T22:51:13.194Z,8.3
2023-02-17T22:56:19.237Z,8.3
2023-02-17T23:01:25.275Z,8.3
2023-02-17T23:06:31.393Z,8.3
2023-02-17T23:11:37.424Z,8.3
2023-02-17T23:16:43.529Z,8.3
2023-02-17T23:21:49.571Z,8.2
2023-02-17T23:26:55.592Z,8.2
2023-02-17T23:32:01.702Z,8.2
2023-02-17T23:37:07.728Z,8.2
2023-02-17T23:42:13.786Z,8.2
2023-02-17T23:47:20.175Z,8.3
2023-02-17T23:52:25.910Z,8.3
2023-02-17T23:57:31.935Z,8.3
